Aberdeen, WA

12:39 AM PDT on August 30, 2014 (GMT -0700)
Central Park 2 | Change Station
CLOSE
Current Station
Personal Weather Station
Location: Aberdeen, WA
Elevation: 33 ft
Nearby Weather Stations

Elev 33 ft 46.97 °N, 123.72 °W | Updated 5 minutes ago

Overcast
Overcast
59.4 °F
Feels Like 59.4 °F
N
0.0
Wind Variable Wind from ENE

Today
High -- | Low -- °F
--% Chance of Precip.
Yesterday
High -- | Low -- °F
Precip. -- in
6:31 AM 7:58 PM
Waxing Crescent, 20% visible
Pressure 29.96 in
Visibility 9.0 miles
Clouds Scattered Clouds 1500 ft
Mostly Cloudy 2000 ft
Overcast 5000 ft
Dew Point 58 °F
Humidity 96%
Rainfall 0.00 in
Snow Depth Not available.
UV 0 out of 12
Pollen 2.90 out of 12
PM2.5 Good
Flu Activity Not available.
SPECI KHQM 300725Z AUTO 17005KT 9SM SCT015 BKN020 OVC050 17/16 A2996 RMK AO2 T01670156

More Conditions Fewer Conditions

Pressure 29.96 in
Visibility 9.0 miles
Clouds Scattered Clouds 1500 ft
Mostly Cloudy 2000 ft
Overcast 5000 ft
Dew Point 58 °F
Humidity 96%
Rainfall 0.00 in
Snow Depth Not available.
UV 0 out of 12
Pollen 2.90 out of 12
PM2.5 Good
Flu Activity Not available.
SPECI KHQM 300725Z AUTO 17005KT 9SM SCT015 BKN020 OVC050 17/16 A2996 RMK AO2 T01670156

More Conditions Fewer Conditions

10-Day Weather Forecast

Almanac

Astronomy

Aug. 30, 2014 Rise Set
Actual Time 6:31 AM PDT 7:58 PM PDT
Civil Twilight 6:00 AM PDT 8:29 PM PDT
Nautical Twilight 5:21 AM PDT 9:08 PM PDT
Astronomical Twilight 4:40 AM PDT 9:49 PM PDT
Moon 11:46 AM PDT 10:14 PM PDT
Length of Visible Light 14h 29m
Length of Day
13h 26m
Tomorrow will be 3m 14s shorter.
Waxing Crescent, 20% of the Moon is Illuminated
Today
Waxing Crescent
Sep 2
First Quarter
Sep 8
Full
Sep 15
Last Quarter
Sep 24
New

Today's Extremes

State Highs State Lows

Community

WunderPhotos

Upload Photos

1,748,463 photos uploaded!

Nearby

Air Quality

  Air Quality AQ Index Pollutant
Yesterday Good
PM2.5
Current Good
PM2.5

Snow Depth

Station Depth Elevation
Mount Crag 0 in 4050 ft
Dungeness 0 in 4100 ft
Burnt Mountain 0 in 4200 ft
Sheep Canyon 0 in 4030 ft
Swift Creek 0 in 3770 ft

Earthquake Activity

City Distance Mag. Time & Date
No recent earthquake activity has been reported nearby.
Minimum magnitude displayed is 2.5.

Coastal Water Temperatures

Place Temperature
Westport, WA 57.9 °F
Tacoma, WA 55.0 °F
Seattle, WA 55.9 °F
Astoria, OR 70.0 °F

Nearby Weather Stations